createdAt,value
2022-09-02T00:00:28.155Z,10.52
2022-09-02T00:02:54.978Z,10.48
2022-09-02T00:05:21.882Z,10.44
2022-09-02T00:07:48.527Z,10.40
2022-09-02T00:10:15.296Z,10.37
2022-09-02T00:12:41.922Z,10.34
2022-09-02T00:15:09.169Z,10.33
2022-09-02T00:17:35.952Z,10.29
2022-09-02T00:20:02.839Z,10.28
2022-09-02T00:22:29.592Z,10.28
2022-09-02T00:24:56.231Z,10.25
2022-09-02T00:27:23.279Z,10.21
2022-09-02T00:29:50.059Z,10.16
2022-09-02T00:32:16.706Z,10.12
2022-09-02T00:34:43.992Z,10.07
2022-09-02T00:37:10.779Z,10.04
2022-09-02T00:39:37.510Z,9.99
2022-09-02T00:42:04.223Z,9.92
2022-09-02T00:44:30.940Z,9.87
2022-09-02T00:46:57.573Z,9.84
2022-09-02T00:49:32.198Z,9.81
2022-09-02T00:52:06.066Z,9.79
2022-09-02T00:54:35.001Z,9.80
2022-09-02T00:57:01.978Z,9.81
2022-09-02T00:59:58.455Z,9.79
2022-09-02T01:02:26.299Z,9.78
2022-09-02T01:04:56.897Z,9.76
2022-09-02T01:07:26.128Z,9.76
2022-09-02T01:09:55.502Z,9.77
2022-09-02T01:12:24.293Z,9.77
2022-09-02T01:14:51.035Z,9.78
2022-09-02T01:17:19.465Z,9.79
2022-09-02T01:19:49.287Z,9.80
2022-09-02T01:22:24.185Z,9.77
2022-09-02T01:24:51.130Z,9.74
2022-09-02T01:27:22.079Z,9.74
2022-09-02T01:29:56.111Z,9.74
2022-09-02T01:32:22.953Z,9.70
2022-09-02T01:34:49.686Z,9.71
2022-09-02T01:37:16.513Z,9.69
2022-09-02T01:40:41.222Z,9.67
2022-09-02T01:43:13.561Z,9.62
2022-09-02T01:45:41.615Z,9.61
2022-09-02T01:48:11.017Z,9.60
2022-09-02T01:50:42.515Z,9.59
2022-09-02T01:53:12.130Z,9.57
2022-09-02T01:55:39.010Z,9.54
2022-09-02T01:58:05.749Z,9.52
2022-09-02T02:00:32.495Z,9.51
2022-09-02T02:02:59.335Z,9.48
2022-09-02T02:05:26.003Z,9.45
2022-09-02T02:07:53.024Z,9.43
2022-09-02T02:10:20.672Z,9.41
2022-09-02T02:12:48.415Z,9.41
2022-09-02T02:15:18.034Z,9.39
2022-09-02T02:17:44.872Z,9.36
2022-09-02T02:20:11.888Z,9.33
2022-09-02T02:22:39.078Z,9.30
2022-09-02T02:25:06.572Z,9.27
2022-09-02T02:27:33.489Z,9.25
2022-09-02T02:30:05.309Z,9.24
2022-09-02T02:32:32.676Z,9.21
2022-09-02T02:34:59.847Z,9.20
2022-09-02T02:37:26.779Z,9.17
2022-09-02T02:39:53.812Z,9.15
2022-09-02T02:42:21.162Z,9.11
2022-09-02T02:44:48.009Z,9.07
2022-09-02T02:47:14.731Z,9.02
2022-09-02T02:49:43.110Z,8.97
2022-09-02T02:52:10.615Z,8.92
2022-09-02T02:54:37.793Z,8.89
2022-09-02T02:57:05.440Z,8.86
2022-09-02T02:59:32.779Z,8.84
2022-09-02T03:01:59.685Z,8.82
2022-09-02T03:04:26.621Z,8.81
2022-09-02T03:06:53.948Z,8.82
2022-09-02T03:09:21.146Z,8.82
2022-09-02T03:11:48.108Z,8.81
2022-09-02T03:14:15.265Z,8.78
2022-09-02T03:16:42.084Z,8.76
2022-09-02T03:19:08.827Z,8.75
2022-09-02T03:21:38.855Z,8.72
2022-09-02T03:24:07.604Z,8.69
2022-09-02T03:26:34.478Z,8.66
2022-09-02T03:29:01.198Z,8.65
2022-09-02T03:31:28.647Z,8.65
2022-09-02T03:33:55.769Z,8.64
2022-09-02T03:36:24.938Z,8.62
2022-09-02T03:38:51.993Z,8.64
2022-09-02T03:41:18.844Z,8.66
2022-09-02T03:43:46.380Z,8.66
2022-09-02T03:46:14.004Z,8.66
2022-09-02T03:48:41.236Z,8.66
2022-09-02T03:51:09.719Z,8.69
2022-09-02T03:53:36.646Z,8.72
2022-09-02T03:56:07.730Z,8.75
2022-09-02T03:58:35.268Z,8.80
2022-09-02T04:01:02.491Z,8.87
2022-09-02T04:03:30.189Z,8.96
2022-09-02T04:05:56.878Z,9.07
2022-09-02T04:08:24.751Z,9.17
2022-09-02T04:10:52.196Z,9.25
2022-09-02T04:13:18.962Z,9.37
2022-09-02T04:15:48.231Z,9.47
2022-09-02T04:18:16.679Z,9.56
2022-09-02T04:20:44.206Z,9.65
2022-09-02T04:23:11.528Z,9.76
2022-09-02T04:25:42.955Z,9.92
2022-09-02T04:28:10.269Z,10.13
2022-09-02T04:30:41.104Z,10.40
2022-09-02T04:33:07.814Z,10.75
2022-09-02T04:35:36.011Z,11.10
2022-09-02T04:38:03.081Z,11.44
2022-09-02T04:40:31.305Z,11.79
2022-09-02T04:42:58.714Z,12.14
2022-09-02T04:45:29.737Z,12.49
2022-09-02T04:47:57.251Z,12.86
2022-09-02T04:50:24.029Z,13.20
2022-09-02T04:52:58.087Z,13.54
2022-09-02T04:55:25.366Z,13.83
2022-09-02T04:57:52.331Z,14.08
2022-09-02T05:00:19.568Z,14.24
2022-09-02T05:02:47.931Z,14.34
2022-09-02T05:05:15.116Z,14.35
2022-09-02T05:07:41.859Z,14.38
2022-09-02T05:10:09.253Z,14.34
2022-09-02T05:12:40.557Z,14.30
2022-09-02T05:15:09.829Z,14.30
2022-09-02T05:17:36.794Z,14.32
2022-09-02T05:20:07.678Z,14.39
2022-09-02T05:22:35.987Z,14.42
2022-09-02T05:25:07.525Z,14.49
2022-09-02T05:27:35.141Z,14.63
2022-09-02T05:30:02.453Z,14.80
2022-09-02T05:32:32.395Z,15.01
2022-09-02T05:35:01.200Z,15.17
2022-09-02T05:37:28.065Z,15.32
2022-09-02T05:39:54.829Z,15.46
2022-09-02T05:42:21.737Z,15.58
2022-09-02T05:44:50.171Z,15.68
2022-09-02T05:47:19.205Z,15.78
2022-09-02T05:49:46.041Z,15.89
2022-09-02T05:52:14.887Z,15.95
2022-09-02T05:54:49.336Z,15.89
2022-09-02T05:57:19.311Z,15.82
2022-09-02T06:00:03.076Z,15.80
2022-09-02T06:02:42.406Z,15.81
2022-09-02T06:05:13.072Z,15.82
2022-09-02T06:07:43.557Z,15.80
2022-09-02T06:10:11.143Z,15.77
2022-09-02T06:12:42.439Z,15.77
2022-09-02T06:15:10.520Z,15.75
2022-09-02T06:17:38.931Z,15.71
2022-09-02T06:20:06.998Z,15.66
2022-09-02T06:22:34.294Z,15.64
2022-09-02T06:25:01.187Z,15.63
2022-09-02T06:27:29.445Z,15.62
2022-09-02T06:29:56.491Z,15.62
2022-09-02T06:32:24.361Z,15.65
2022-09-02T06:34:55.107Z,15.66
2022-09-02T06:37:21.986Z,15.65
2022-09-02T06:39:50.675Z,15.67
2022-09-02T06:42:21.536Z,15.69
2022-09-02T06:45:03.849Z,15.69
2022-09-02T06:47:31.823Z,15.71
2022-09-02T06:50:00.051Z,15.76
2022-09-02T06:52:26.815Z,15.77
2022-09-02T06:54:54.994Z,15.80
2022-09-02T06:57:21.846Z,15.83
2022-09-02T06:59:52.009Z,15.84
2022-09-02T07:02:20.521Z,15.81
2022-09-02T07:05:06.181Z,15.82
2022-09-02T07:07:35.215Z,15.86
2022-09-02T07:10:07.057Z,15.90
2022-09-02T07:12:35.902Z,15.92
2022-09-02T07:15:07.161Z,15.94
2022-09-02T07:17:37.287Z,15.95
2022-09-02T07:20:06.943Z,15.91
2022-09-02T07:22:39.775Z,15.89
2022-09-02T07:25:08.547Z,15.91
2022-09-02T07:27:35.723Z,15.93
2022-09-02T07:30:04.926Z,15.96
2022-09-02T07:32:31.824Z,16.00
2022-09-02T07:34:58.618Z,16.06
2022-09-02T07:37:25.378Z,16.12
2022-09-02T07:39:53.140Z,16.16
2022-09-02T07:42:20.435Z,16.17
2022-09-02T07:44:47.948Z,16.20
2022-09-02T07:47:15.199Z,16.26
2022-09-02T07:52:30.524Z,16.34
2022-09-02T07:54:57.328Z,16.39
2022-09-02T07:57:24.735Z,16.44
2022-09-02T07:59:52.111Z,16.48
2022-09-02T08:02:19.358Z,16.53
2022-09-02T08:04:46.720Z,16.57
2022-09-02T08:07:14.560Z,16.64
2022-09-02T08:09:41.352Z,16.69
2022-09-02T08:12:08.200Z,16.74
2022-09-02T08:14:35.067Z,16.80
2022-09-02T08:17:03.357Z,16.89
2022-09-02T08:19:30.312Z,16.89
2022-09-02T08:22:06.426Z,16.85
2022-09-02T08:24:33.240Z,16.77
2022-09-02T08:27:00.291Z,16.71
2022-09-02T08:29:27.005Z,16.65
2022-09-02T08:31:54.235Z,16.60
2022-09-02T08:34:21.254Z,16.56
2022-09-02T08:36:56.017Z,16.54
2022-09-02T08:42:16.330Z,16.69
2022-09-02T08:44:43.129Z,16.72
2022-09-02T08:47:15.577Z,16.71
2022-09-02T08:49:44.255Z,16.72
2022-09-02T08:52:17.169Z,16.73
2022-09-02T08:54:48.838Z,16.72
2022-09-02T08:57:15.586Z,16.70
2022-09-02T08:59:44.086Z,16.69
2022-09-02T09:02:47.388Z,16.70
2022-09-02T09:05:23.187Z,16.75
2022-09-02T09:07:50.015Z,16.79
2022-09-02T09:10:32.574Z,16.85
2022-09-02T09:13:32.233Z,16.92
2022-09-02T09:16:14.955Z,16.98
2022-09-02T09:18:45.778Z,17.06
2022-09-02T09:21:14.035Z,17.12
2022-09-02T09:23:41.096Z,17.15
2022-09-02T09:26:12.602Z,17.13
2022-09-02T09:28:48.089Z,17.12
2022-09-02T09:31:18.831Z,17.16
2022-09-02T09:33:58.831Z,17.19
2022-09-02T09:36:40.463Z,17.23
2022-09-02T09:39:22.171Z,17.29
2022-09-02T09:41:49.262Z,17.33
2022-09-02T09:44:49.206Z,17.36
2022-09-02T09:47:19.545Z,17.45
2022-09-02T09:49:50.126Z,17.54
2022-09-02T09:52:26.959Z,17.64
2022-09-02T09:55:15.462Z,17.71
2022-09-02T09:57:51.123Z,17.72
2022-09-02T10:00:27.464Z,17.73
2022-09-02T10:02:56.021Z,17.74
2022-09-02T10:05:25.258Z,17.75
2022-09-02T10:08:03.323Z,17.76
2022-09-02T10:10:31.221Z,17.76
2022-09-02T10:13:01.498Z,17.77
2022-09-02T10:16:03.456Z,17.81
2022-09-02T10:18:32.772Z,17.79
2022-09-02T10:21:16.546Z,17.75
2022-09-02T10:24:05.003Z,17.69
2022-09-02T10:26:42.307Z,17.60
2022-09-02T10:29:27.803Z,17.56
2022-09-02T10:31:57.544Z,17.58
2022-09-02T10:34:32.639Z,17.64
2022-09-02T10:37:11.746Z,17.70
2022-09-02T10:39:56.798Z,17.74
2022-09-02T10:43:00.940Z,17.81
2022-09-02T10:45:47.040Z,17.91
2022-09-02T10:48:30.787Z,17.96
2022-09-02T10:51:22.800Z,18.00
2022-09-02T10:54:34.338Z,18.04
2022-09-02T10:57:13.914Z,18.09
2022-09-02T10:59:44.459Z,18.13
2022-09-02T11:02:25.055Z,18.20
2022-09-02T11:04:56.659Z,18.27
2022-09-02T11:07:29.938Z,18.32
2022-09-02T11:10:00.339Z,18.36
2022-09-02T11:12:51.654Z,18.41
2022-09-02T11:15:32.014Z,18.42
2022-09-02T11:18:07.995Z,18.39
2022-09-02T11:20:40.583Z,18.35
2022-09-02T11:23:20.527Z,18.34
2022-09-02T11:25:55.654Z,18.35
2022-09-02T11:28:59.940Z,18.37
2022-09-02T11:31:54.258Z,18.38
2022-09-02T11:34:35.360Z,18.37
2022-09-02T11:37:06.957Z,18.36
2022-09-02T11:39:59.187Z,18.35
2022-09-02T11:42:41.239Z,18.37
2022-09-02T11:45:45.586Z,18.37
2022-09-02T11:48:29.519Z,18.38
2022-09-02T11:50:59.325Z,18.39
2022-09-02T11:53:35.877Z,18.41
2022-09-02T11:56:09.659Z,18.46
2022-09-02T11:58:43.752Z,18.48
2022-09-02T12:01:47.855Z,18.47
2022-09-02T12:07:09.101Z,18.43
2022-09-02T12:12:37.010Z,18.52
2022-09-02T12:15:04.966Z,18.60
2022-09-02T12:17:37.215Z,18.70
2022-09-02T12:20:09.234Z,18.80
2022-09-02T12:22:40.485Z,18.85
2022-09-02T12:25:26.948Z,18.89
2022-09-02T12:28:24.993Z,18.91
2022-09-02T12:31:10.434Z,18.87
2022-09-02T12:33:38.223Z,18.87
2022-09-02T12:36:05.982Z,18.88
2022-09-02T12:38:36.725Z,18.91
2022-09-02T12:41:13.474Z,18.94
2022-09-02T12:43:47.650Z,18.96
2022-09-02T12:46:45.150Z,19.00
2022-09-02T12:49:41.258Z,19.05
2022-09-02T12:52:12.540Z,19.07
2022-09-02T12:54:39.243Z,19.06
2022-09-02T12:57:06.504Z,19.06
2022-09-02T12:59:34.585Z,19.08
2022-09-02T13:02:31.726Z,19.11
2022-09-02T13:05:04.558Z,19.10
2022-09-02T13:07:49.600Z,19.09
2022-09-02T13:10:39.140Z,19.10
2022-09-02T13:13:11.847Z,19.10
2022-09-02T13:16:18.620Z,19.11
2022-09-02T13:19:07.247Z,19.17
2022-09-02T13:21:44.138Z,19.18
2022-09-02T13:24:19.060Z,19.17
2022-09-02T13:27:15.935Z,19.18
2022-09-02T13:30:22.080Z,19.21
2022-09-02T13:33:02.618Z,19.23
2022-09-02T13:35:29.522Z,19.21
2022-09-02T13:38:00.515Z,19.18
2022-09-02T13:40:34.894Z,19.16
2022-09-02T13:43:03.376Z,19.10
2022-09-02T13:45:32.889Z,19.04
2022-09-02T13:48:01.001Z,19.00
2022-09-02T13:50:29.881Z,18.96
2022-09-02T13:57:55.910Z,18.96
2022-09-02T14:00:33.827Z,18.96
2022-09-02T14:03:06.042Z,18.97
2022-09-02T14:05:35.653Z,18.95
2022-09-02T14:08:04.116Z,18.95
2022-09-02T14:10:31.732Z,18.95
2022-09-02T14:12:58.569Z,18.95
2022-09-02T14:15:30.129Z,18.96
2022-09-02T14:18:26.377Z,18.95
2022-09-02T14:20:58.310Z,18.92
2022-09-02T14:23:25.804Z,18.87
2022-09-02T14:25:56.725Z,18.82
2022-09-02T14:28:27.683Z,18.76
2022-09-02T14:31:00.084Z,18.70
2022-09-02T14:33:36.165Z,18.62
2022-09-02T14:36:04.561Z,18.56
2022-09-02T14:38:47.851Z,18.53
2022-09-02T14:41:17.625Z,18.49
2022-09-02T14:43:49.357Z,18.46
2022-09-02T14:46:21.083Z,18.42
2022-09-02T14:48:54.841Z,18.39
2022-09-02T14:51:21.895Z,18.37
2022-09-02T14:53:48.610Z,18.36
2022-09-02T14:56:15.343Z,18.33
2022-09-02T14:58:42.088Z,18.28
2022-09-02T15:01:08.877Z,18.26
2022-09-02T15:03:37.238Z,18.24
2022-09-02T15:06:03.962Z,18.21
2022-09-02T15:08:30.688Z,18.18
2022-09-02T15:10:58.913Z,18.16
2022-09-02T15:13:30.256Z,18.14
2022-09-02T15:15:57.297Z,18.12
2022-09-02T15:18:24.331Z,18.09
2022-09-02T15:20:51.659Z,18.07
2022-09-02T15:23:18.506Z,18.04
2022-09-02T15:25:45.256Z,18.01
2022-09-02T15:28:13.327Z,17.99
2022-09-02T15:30:40.788Z,17.96
2022-09-02T15:33:08.119Z,17.92
2022-09-02T15:35:43.258Z,17.87
2022-09-02T15:38:10.036Z,17.83
2022-09-02T15:40:36.807Z,17.78
2022-09-02T15:43:03.531Z,17.74
2022-09-02T15:45:30.813Z,17.70
2022-09-02T15:47:58.691Z,17.65
2022-09-02T15:50:26.278Z,17.59
2022-09-02T15:52:56.001Z,17.54
2022-09-02T15:55:29.260Z,17.50
2022-09-02T15:57:56.794Z,17.45
2022-09-02T16:00:27.597Z,17.40
2022-09-02T16:02:54.742Z,17.37
2022-09-02T16:05:21.524Z,17.33
2022-09-02T16:07:48.615Z,17.29
2022-09-02T16:10:15.501Z,17.26
2022-09-02T16:12:42.225Z,17.23
2022-09-02T16:15:09.723Z,17.20
2022-09-02T16:17:36.617Z,17.16
2022-09-02T16:20:04.710Z,17.12
2022-09-02T16:22:31.518Z,17.09
2022-09-02T16:24:58.301Z,17.05
2022-09-02T16:27:43.539Z,17.01
2022-09-02T16:30:10.757Z,16.94
2022-09-02T16:32:38.014Z,16.89
2022-09-02T16:35:05.234Z,16.80
2022-09-02T16:37:32.051Z,16.72
2022-09-02T16:39:58.871Z,16.64
2022-09-02T16:42:26.012Z,16.58
2022-09-02T16:44:52.775Z,16.51
2022-09-02T16:47:19.557Z,16.47
2022-09-02T16:49:46.569Z,16.45
2022-09-02T16:52:13.549Z,16.42
2022-09-02T16:54:41.218Z,16.36
2022-09-02T16:57:09.068Z,16.29
2022-09-02T16:59:35.912Z,16.24
2022-09-02T17:02:02.702Z,16.17
2022-09-02T17:04:29.743Z,16.07
2022-09-02T17:06:56.849Z,15.98
2022-09-02T17:09:23.672Z,15.88
2022-09-02T17:11:50.377Z,15.81
2022-09-02T17:14:21.717Z,15.76
2022-09-02T17:16:49.622Z,15.67
2022-09-02T17:19:21.350Z,15.58
2022-09-02T17:21:52.430Z,15.46
2022-09-02T17:24:20.995Z,15.36
2022-09-02T17:26:50.607Z,15.26
2022-09-02T17:29:46.827Z,15.19
2022-09-02T17:32:06.913Z,15.18
2022-09-02T17:34:33.883Z,15.19
2022-09-02T17:37:00.606Z,15.23
2022-09-02T17:39:27.513Z,15.24
2022-09-02T17:41:54.365Z,15.24
2022-09-02T17:44:22.460Z,15.25
2022-09-02T17:46:49.378Z,15.24
2022-09-02T17:49:17.510Z,15.24
2022-09-02T17:51:44.953Z,15.23
2022-09-02T17:54:11.791Z,15.23
2022-09-02T17:56:57.391Z,15.23
2022-09-02T17:59:45.423Z,15.26
2022-09-02T18:02:15.165Z,15.26
2022-09-02T18:05:06.412Z,15.27
2022-09-02T18:07:40.635Z,15.29
2022-09-02T18:10:07.484Z,15.31
2022-09-02T18:12:36.284Z,15.32
2022-09-02T18:15:04.844Z,15.34
2022-09-02T18:17:35.359Z,15.36
2022-09-02T18:20:09.438Z,15.39
2022-09-02T18:22:47.151Z,15.42
2022-09-02T18:25:45.963Z,15.44
2022-09-02T18:28:16.714Z,15.45
2022-09-02T18:31:34.386Z,15.44
2022-09-02T18:34:30.213Z,15.44
2022-09-02T18:37:17.577Z,15.43
2022-09-02T18:40:11.879Z,15.41
2022-09-02T18:42:47.398Z,15.39
2022-09-02T18:45:54.635Z,15.37
2022-09-02T18:48:25.545Z,15.34
2022-09-02T18:51:16.170Z,15.32
2022-09-02T18:53:48.777Z,15.28
2022-09-02T18:56:15.646Z,15.25
2022-09-02T18:58:45.632Z,15.20
2022-09-02T19:01:25.441Z,15.17
2022-09-02T19:03:52.393Z,15.15
2022-09-02T19:06:21.251Z,15.14
2022-09-02T19:08:48.457Z,15.13
2022-09-02T19:11:16.583Z,15.11
2022-09-02T19:13:53.058Z,15.10
2022-09-02T19:16:27.274Z,15.10
2022-09-02T19:18:54.369Z,15.09
2022-09-02T19:21:30.678Z,15.08
2022-09-02T19:23:57.461Z,15.05
2022-09-02T19:26:25.799Z,15.03
2022-09-02T19:28:52.512Z,15.01
2022-09-02T19:31:22.014Z,15.00
2022-09-02T19:33:53.202Z,14.99
2022-09-02T19:36:21.203Z,14.99
2022-09-02T19:38:48.121Z,14.98
2022-09-02T19:41:14.876Z,15.00
2022-09-02T19:43:41.792Z,15.00
2022-09-02T19:46:27.740Z,14.99
2022-09-02T19:48:57.414Z,14.98
2022-09-02T19:51:27.163Z,14.96
2022-09-02T19:53:56.531Z,14.95
2022-09-02T19:56:23.398Z,14.93
2022-09-02T19:58:50.146Z,14.91
2022-09-02T20:01:17.019Z,14.90
2022-09-02T20:03:44.532Z,14.87
2022-09-02T20:06:11.322Z,14.83
2022-09-02T20:08:38.080Z,14.80
2022-09-02T20:11:05.430Z,14.78
2022-09-02T20:13:40.056Z,14.76
2022-09-02T20:16:16.610Z,14.74
2022-09-02T20:18:46.774Z,14.71
2022-09-02T20:21:18.856Z,14.67
2022-09-02T20:23:45.638Z,14.63
2022-09-02T20:26:31.576Z,14.61
2022-09-02T20:29:20.077Z,14.58
2022-09-02T20:31:52.820Z,14.57
2022-09-02T20:34:33.671Z,14.56
2022-09-02T20:37:07.245Z,14.56
2022-09-02T20:39:39.940Z,14.55
2022-09-02T20:42:27.890Z,14.54
2022-09-02T20:45:09.160Z,14.52
2022-09-02T20:47:54.551Z,14.50
2022-09-02T20:50:35.267Z,14.47
2022-09-02T20:53:20.308Z,14.46
2022-09-02T20:55:51.202Z,14.44
2022-09-02T20:58:22.346Z,14.42
2022-09-02T21:01:09.488Z,14.40
2022-09-02T21:04:12.801Z,14.37
2022-09-02T21:06:42.787Z,14.37
2022-09-02T21:09:12.530Z,14.35
2022-09-02T21:11:48.030Z,14.33
2022-09-02T21:14:24.303Z,14.31
2022-09-02T21:17:05.301Z,14.30
2022-09-02T21:19:41.704Z,14.28
2022-09-02T21:22:14.206Z,14.26
2022-09-02T21:24:55.494Z,14.24
2022-09-02T21:27:28.335Z,14.22
2022-09-02T21:30:08.666Z,14.19
2022-09-02T21:32:46.115Z,14.13
2022-09-02T21:35:29.920Z,14.07
2022-09-02T21:37:59.347Z,14.03
2022-09-02T21:40:31.795Z,14.01
2022-09-02T21:43:17.337Z,14.00
2022-09-02T21:46:09.032Z,13.99
2022-09-02T21:48:51.738Z,13.98
2022-09-02T21:51:29.678Z,13.98
2022-09-02T21:54:25.772Z,13.96
2022-09-02T21:57:06.907Z,13.96
2022-09-02T22:00:00.386Z,13.95
2022-09-02T22:02:50.190Z,13.95
2022-09-02T22:05:21.149Z,13.94
2022-09-02T22:07:50.774Z,13.92
2022-09-02T22:10:36.458Z,13.90
2022-09-02T22:13:03.592Z,13.90
2022-09-02T22:15:58.112Z,13.89
2022-09-02T22:18:40.832Z,13.88
2022-09-02T22:21:19.746Z,13.88
2022-09-02T22:23:46.633Z,13.88
2022-09-02T22:26:20.391Z,13.88
2022-09-02T22:28:50.510Z,13.89
2022-09-02T22:31:18.705Z,13.89
2022-09-02T22:33:51.399Z,13.89
2022-09-02T22:36:43.119Z,13.89
2022-09-02T22:39:12.640Z,13.87
2022-09-02T22:41:52.680Z,13.85
2022-09-02T22:45:02.942Z,13.84
2022-09-02T22:47:48.250Z,13.83
2022-09-02T22:50:35.564Z,13.83
2022-09-02T22:53:02.647Z,13.82
2022-09-02T22:55:39.755Z,13.81
2022-09-02T22:58:25.139Z,13.82
2022-09-02T23:01:03.597Z,13.80
2022-09-02T23:03:56.788Z,13.81
2022-09-02T23:06:24.155Z,13.79
2022-09-02T23:08:51.029Z,13.77
2022-09-02T23:11:39.917Z,13.78
2022-09-02T23:14:24.076Z,13.78
2022-09-02T23:17:20.349Z,13.77
2022-09-02T23:19:56.560Z,13.78
2022-09-02T23:22:25.070Z,13.79
2022-09-02T23:25:13.515Z,13.79
2022-09-02T23:27:44.394Z,13.79
2022-09-02T23:30:12.207Z,13.79
2022-09-02T23:33:03.694Z,13.79
2022-09-02T23:35:36.093Z,13.79
2022-09-02T23:38:06.339Z,13.80
2022-09-02T23:40:40.869Z,13.82
2022-09-02T23:43:08.018Z,13.84
2022-09-02T23:45:34.899Z,13.84
2022-09-02T23:48:26.712Z,13.84
2022-09-02T23:51:32.789Z,13.85
2022-09-02T23:54:24.224Z,13.85
2022-09-02T23:57:10.152Z,13.84
